sensor_id;sensor_type;location;lat;lon;timestamp;temperature;humidity
19206;DHT22;59358;52.134;5.596;2023-06-10T00:00:03;20.40;95.00
19206;DHT22;59358;52.134;5.596;2023-06-10T00:02:32;20.50;95.20
19206;DHT22;59358;52.134;5.596;2023-06-10T00:04:59;20.40;94.90
19206;DHT22;59358;52.134;5.596;2023-06-10T00:07:26;20.40;95.30
19206;DHT22;59358;52.134;5.596;2023-06-10T00:09:52;20.50;94.40
19206;DHT22;59358;52.134;5.596;2023-06-10T00:12:20;20.40;94.60
19206;DHT22;59358;52.134;5.596;2023-06-10T00:14:47;20.40;94.40
19206;DHT22;59358;52.134;5.596;2023-06-10T00:17:15;20.40;94.20
19206;DHT22;59358;52.134;5.596;2023-06-10T00:19:44;20.40;94.20
19206;DHT22;59358;52.134;5.596;2023-06-10T00:22:12;20.40;94.20
19206;DHT22;59358;52.134;5.596;2023-06-10T00:24:40;20.40;93.90
19206;DHT22;59358;52.134;5.596;2023-06-10T00:27:07;20.50;93.70
19206;DHT22;59358;52.134;5.596;2023-06-10T00:29:35;20.50;93.70
19206;DHT22;59358;52.134;5.596;2023-06-10T00:32:02;20.40;93.50
19206;DHT22;59358;52.134;5.596;2023-06-10T00:34:29;20.40;93.90
19206;DHT22;59358;52.134;5.596;2023-06-10T00:36:59;20.40;93.60
19206;DHT22;59358;52.134;5.596;2023-06-10T00:39:25;20.30;93.60
19206;DHT22;59358;52.134;5.596;2023-06-10T00:41:52;20.20;93.60
19206;DHT22;59358;52.134;5.596;2023-06-10T00:44:19;20.20;93.80
19206;DHT22;59358;52.134;5.596;2023-06-10T00:46:46;20.20;93.90
19206;DHT22;59358;52.134;5.596;2023-06-10T00:49:13;20.20;94.00
19206;DHT22;59358;52.134;5.596;2023-06-10T00:51:40;20.10;93.90
19206;DHT22;59358;52.134;5.596;2023-06-10T00:54:08;20.10;94.10
19206;DHT22;59358;52.134;5.596;2023-06-10T00:56:35;20.00;94.20
19206;DHT22;59358;52.134;5.596;2023-06-10T00:59:02;20.00;94.30
19206;DHT22;59358;52.134;5.596;2023-06-10T01:01:29;20.00;94.00
19206;DHT22;59358;52.134;5.596;2023-06-10T01:03:57;19.90;94.60
19206;DHT22;59358;52.134;5.596;2023-06-10T01:06:30;19.90;94.20
19206;DHT22;59358;52.134;5.596;2023-06-10T01:09:04;19.90;94.00
19206;DHT22;59358;52.134;5.596;2023-06-10T01:11:45;19.90;94.60
19206;DHT22;59358;52.134;5.596;2023-06-10T01:14:14;19.90;94.10
19206;DHT22;59358;52.134;5.596;2023-06-10T01:16:42;19.80;94.20
19206;DHT22;59358;52.134;5.596;2023-06-10T01:19:11;19.80;94.20
19206;DHT22;59358;52.134;5.596;2023-06-10T01:21:39;19.80;94.10
19206;DHT22;59358;52.134;5.596;2023-06-10T01:24:06;19.70;94.30
19206;DHT22;59358;52.134;5.596;2023-06-10T01:26:34;19.70;94.70
19206;DHT22;59358;52.134;5.596;2023-06-10T01:29:06;19.70;94.20
19206;DHT22;59358;52.134;5.596;2023-06-10T01:31:38;19.70;94.50
19206;DHT22;59358;52.134;5.596;2023-06-10T01:34:10;19.70;94.60
19206;DHT22;59358;52.134;5.596;2023-06-10T01:36:39;19.70;94.50
19206;DHT22;59358;52.134;5.596;2023-06-10T01:39:08;19.70;94.40
19206;DHT22;59358;52.134;5.596;2023-06-10T01:41:35;19.70;94.70
19206;DHT22;59358;52.134;5.596;2023-06-10T01:44:02;19.70;94.70
19206;DHT22;59358;52.134;5.596;2023-06-10T01:46:30;19.70;94.80
19206;DHT22;59358;52.134;5.596;2023-06-10T01:48:57;19.60;95.20
19206;DHT22;59358;52.134;5.596;2023-06-10T01:51:23;19.60;95.10
19206;DHT22;59358;52.134;5.596;2023-06-10T01:53:52;19.60;95.40
19206;DHT22;59358;52.134;5.596;2023-06-10T01:56:18;19.50;95.30
19206;DHT22;59358;52.134;5.596;2023-06-10T01:58:46;19.50;95.30
19206;DHT22;59358;52.134;5.596;2023-06-10T02:01:13;19.50;95.30
19206;DHT22;59358;52.134;5.596;2023-06-10T02:03:40;19.50;95.40
19206;DHT22;59358;52.134;5.596;2023-06-10T02:06:07;19.50;95.70
19206;DHT22;59358;52.134;5.596;2023-06-10T02:08:34;19.40;95.70
19206;DHT22;59358;52.134;5.596;2023-06-10T02:11:02;19.40;96.20
19206;DHT22;59358;52.134;5.596;2023-06-10T02:13:29;19.40;96.00
19206;DHT22;59358;52.134;5.596;2023-06-10T02:15:55;19.40;96.00
19206;DHT22;59358;52.134;5.596;2023-06-10T02:18:22;19.40;96.20
19206;DHT22;59358;52.134;5.596;2023-06-10T02:20:49;19.20;96.50
19206;DHT22;59358;52.134;5.596;2023-06-10T02:23:16;19.30;96.40
19206;DHT22;59358;52.134;5.596;2023-06-10T02:25:43;19.20;96.40
19206;DHT22;59358;52.134;5.596;2023-06-10T02:28:11;19.20;96.50
19206;DHT22;59358;52.134;5.596;2023-06-10T02:30:39;19.20;96.60
19206;DHT22;59358;52.134;5.596;2023-06-10T02:33:06;19.10;96.70
19206;DHT22;59358;52.134;5.596;2023-06-10T02:35:35;19.10;97.10
19206;DHT22;59358;52.134;5.596;2023-06-10T02:38:02;19.10;96.90
19206;DHT22;59358;52.134;5.596;2023-06-10T02:40:29;19.00;97.30
19206;DHT22;59358;52.134;5.596;2023-06-10T02:42:56;18.90;97.40
19206;DHT22;59358;52.134;5.596;2023-06-10T02:45:25;18.90;97.40
19206;DHT22;59358;52.134;5.596;2023-06-10T02:47:51;18.90;97.50
19206;DHT22;59358;52.134;5.596;2023-06-10T02:50:18;18.90;97.50
19206;DHT22;59358;52.134;5.596;2023-06-10T02:52:45;18.90;97.60
19206;DHT22;59358;52.134;5.596;2023-06-10T02:55:12;18.80;97.70
19206;DHT22;59358;52.134;5.596;2023-06-10T02:57:39;18.80;97.90
19206;DHT22;59358;52.134;5.596;2023-06-10T03:00:07;18.70;98.00
19206;DHT22;59358;52.134;5.596;2023-06-10T03:02:38;18.70;98.10
19206;DHT22;59358;52.134;5.596;2023-06-10T03:05:05;18.70;98.30
19206;DHT22;59358;52.134;5.596;2023-06-10T03:07:35;18.70;98.30
19206;DHT22;59358;52.134;5.596;2023-06-10T03:10:03;18.70;98.40
19206;DHT22;59358;52.134;5.596;2023-06-10T03:12:29;18.60;98.40
19206;DHT22;59358;52.134;5.596;2023-06-10T03:14:56;18.60;98.70
19206;DHT22;59358;52.134;5.596;2023-06-10T03:17:23;18.60;98.70
19206;DHT22;59358;52.134;5.596;2023-06-10T03:19:51;18.50;98.70
19206;DHT22;59358;52.134;5.596;2023-06-10T03:22:18;18.50;98.80
19206;DHT22;59358;52.134;5.596;2023-06-10T03:24:45;18.50;98.80
19206;DHT22;59358;52.134;5.596;2023-06-10T03:27:16;18.50;98.90
19206;DHT22;59358;52.134;5.596;2023-06-10T03:29:43;18.50;99.00
19206;DHT22;59358;52.134;5.596;2023-06-10T03:32:09;18.40;99.00
19206;DHT22;59358;52.134;5.596;2023-06-10T03:34:36;18.40;99.20
19206;DHT22;59358;52.134;5.596;2023-06-10T03:37:05;18.30;99.40
19206;DHT22;59358;52.134;5.596;2023-06-10T03:39:32;18.40;99.30
19206;DHT22;59358;52.134;5.596;2023-06-10T03:41:59;18.40;99.70
19206;DHT22;59358;52.134;5.596;2023-06-10T03:44:26;18.30;99.60
19206;DHT22;59358;52.134;5.596;2023-06-10T03:46:53;18.40;99.70
19206;DHT22;59358;52.134;5.596;2023-06-10T03:49:20;18.40;99.70
19206;DHT22;59358;52.134;5.596;2023-06-10T03:51:47;18.30;99.80
19206;DHT22;59358;52.134;5.596;2023-06-10T03:54:15;18.40;99.90
19206;DHT22;59358;52.134;5.596;2023-06-10T03:56:42;18.40;99.90
19206;DHT22;59358;52.134;5.596;2023-06-10T03:59:08;18.50;99.90
19206;DHT22;59358;52.134;5.596;2023-06-10T04:01:35;18.60;99.90
19206;DHT22;59358;52.134;5.596;2023-06-10T04:04:03;18.60;99.90
19206;DHT22;59358;52.134;5.596;2023-06-10T04:06:30;18.50;99.90
19206;DHT22;59358;52.134;5.596;2023-06-10T04:08:57;18.50;99.90
19206;DHT22;59358;52.134;5.596;2023-06-10T04:11:25;18.40;99.90
19206;DHT22;59358;52.134;5.596;2023-06-10T04:13:52;18.50;99.90
19206;DHT22;59358;52.134;5.596;2023-06-10T04:16:19;18.50;99.90
19206;DHT22;59358;52.134;5.596;2023-06-10T04:18:46;18.60;99.90
19206;DHT22;59358;52.134;5.596;2023-06-10T04:21:13;18.50;99.90
19206;DHT22;59358;52.134;5.596;2023-06-10T04:23:40;18.60;99.90
19206;DHT22;59358;52.134;5.596;2023-06-10T04:26:07;18.50;99.90
19206;DHT22;59358;52.134;5.596;2023-06-10T04:28:35;18.50;99.90
19206;DHT22;59358;52.134;5.596;2023-06-10T04:31:02;18.60;99.90
19206;DHT22;59358;52.134;5.596;2023-06-10T04:33:29;18.60;99.90
19206;DHT22;59358;52.134;5.596;2023-06-10T04:35:57;18.60;99.90
19206;DHT22;59358;52.134;5.596;2023-06-10T04:38:24;18.70;99.90
19206;DHT22;59358;52.134;5.596;2023-06-10T04:40:50;18.70;99.90
19206;DHT22;59358;52.134;5.596;2023-06-10T04:43:17;18.70;99.90
19206;DHT22;59358;52.134;5.596;2023-06-10T04:45:45;18.70;99.90
19206;DHT22;59358;52.134;5.596;2023-06-10T04:48:12;18.70;99.90
19206;DHT22;59358;52.134;5.596;2023-06-10T04:50:39;18.80;99.90
19206;DHT22;59358;52.134;5.596;2023-06-10T04:53:06;18.80;99.90
19206;DHT22;59358;52.134;5.596;2023-06-10T04:55:34;18.90;99.90
19206;DHT22;59358;52.134;5.596;2023-06-10T04:58:01;18.90;99.90
19206;DHT22;59358;52.134;5.596;2023-06-10T05:00:28;18.90;99.90
19206;DHT22;59358;52.134;5.596;2023-06-10T05:02:56;18.90;99.90
19206;DHT22;59358;52.134;5.596;2023-06-10T05:05:23;19.00;99.90
19206;DHT22;59358;52.134;5.596;2023-06-10T05:07:50;19.00;99.90
19206;DHT22;59358;52.134;5.596;2023-06-10T05:10:17;19.00;99.90
19206;DHT22;59358;52.134;5.596;2023-06-10T05:12:44;19.10;99.90
19206;DHT22;59358;52.134;5.596;2023-06-10T05:15:10;19.10;99.90
19206;DHT22;59358;52.134;5.596;2023-06-10T05:17:37;19.20;99.90
19206;DHT22;59358;52.134;5.596;2023-06-10T05:20:06;19.20;99.90
19206;DHT22;59358;52.134;5.596;2023-06-10T05:22:33;19.20;99.90
19206;DHT22;59358;52.134;5.596;2023-06-10T05:25:01;19.30;99.90
19206;DHT22;59358;52.134;5.596;2023-06-10T05:27:28;19.30;99.90
19206;DHT22;59358;52.134;5.596;2023-06-10T05:29:55;19.40;99.90
19206;DHT22;59358;52.134;5.596;2023-06-10T05:32:22;19.50;99.90
19206;DHT22;59358;52.134;5.596;2023-06-10T05:34:49;19.60;99.90
19206;DHT22;59358;52.134;5.596;2023-06-10T05:37:17;19.70;99.90
19206;DHT22;59358;52.134;5.596;2023-06-10T05:39:43;19.80;99.90
19206;DHT22;59358;52.134;5.596;2023-06-10T05:42:10;19.80;99.90
19206;DHT22;59358;52.134;5.596;2023-06-10T05:44:37;19.80;99.90
19206;DHT22;59358;52.134;5.596;2023-06-10T05:47:04;19.90;99.90
19206;DHT22;59358;52.134;5.596;2023-06-10T05:49:31;20.00;99.90
19206;DHT22;59358;52.134;5.596;2023-06-10T05:51:58;20.10;99.90
19206;DHT22;59358;52.134;5.596;2023-06-10T05:54:26;20.20;99.70
19206;DHT22;59358;52.134;5.596;2023-06-10T05:56:53;20.20;99.80
19206;DHT22;59358;52.134;5.596;2023-06-10T05:59:20;20.30;99.80
19206;DHT22;59358;52.134;5.596;2023-06-10T06:01:48;20.40;99.40
19206;DHT22;59358;52.134;5.596;2023-06-10T06:04:15;20.50;99.10
19206;DHT22;59358;52.134;5.596;2023-06-10T06:06:42;20.50;99.90
19206;DHT22;59358;52.134;5.596;2023-06-10T06:09:09;20.70;99.60
19206;DHT22;59358;52.134;5.596;2023-06-10T06:11:37;20.80;99.10
19206;DHT22;59358;52.134;5.596;2023-06-10T06:14:04;20.90;99.00
19206;DHT22;59358;52.134;5.596;2023-06-10T06:16:31;20.80;98.80
19206;DHT22;59358;52.134;5.596;2023-06-10T06:18:58;20.80;99.00
19206;DHT22;59358;52.134;5.596;2023-06-10T06:21:25;21.00;98.60
19206;DHT22;59358;52.134;5.596;2023-06-10T06:23:52;21.10;98.90
19206;DHT22;59358;52.134;5.596;2023-06-10T06:26:18;21.20;98.30
19206;DHT22;59358;52.134;5.596;2023-06-10T06:28:47;21.20;98.80
19206;DHT22;59358;52.134;5.596;2023-06-10T06:31:14;21.30;98.50
19206;DHT22;59358;52.134;5.596;2023-06-10T06:33:41;21.40;98.40
19206;DHT22;59358;52.134;5.596;2023-06-10T06:36:08;21.60;98.60
19206;DHT22;59358;52.134;5.596;2023-06-10T06:38:35;21.70;97.90
19206;DHT22;59358;52.134;5.596;2023-06-10T06:41:01;21.70;97.50
19206;DHT22;59358;52.134;5.596;2023-06-10T06:43:31;21.80;97.70
19206;DHT22;59358;52.134;5.596;2023-06-10T06:45:59;22.10;97.30
19206;DHT22;59358;52.134;5.596;2023-06-10T06:48:26;22.20;97.00
19206;DHT22;59358;52.134;5.596;2023-06-10T06:50:53;22.20;96.70
19206;DHT22;59358;52.134;5.596;2023-06-10T06:53:21;22.20;97.10
19206;DHT22;59358;52.134;5.596;2023-06-10T06:55:48;22.20;96.60
19206;DHT22;59358;52.134;5.596;2023-06-10T06:58:15;22.40;97.00
19206;DHT22;59358;52.134;5.596;2023-06-10T07:00:42;22.50;96.60
19206;DHT22;59358;52.134;5.596;2023-06-10T07:03:11;22.70;96.30
19206;DHT22;59358;52.134;5.596;2023-06-10T07:05:38;22.80;95.80
19206;DHT22;59358;52.134;5.596;2023-06-10T07:08:05;22.80;95.80
19206;DHT22;59358;52.134;5.596;2023-06-10T07:10:32;22.80;95.70
19206;DHT22;59358;52.134;5.596;2023-06-10T07:12:59;22.90;95.90
19206;DHT22;59358;52.134;5.596;2023-06-10T07:15:26;23.00;95.30
19206;DHT22;59358;52.134;5.596;2023-06-10T07:17:52;23.10;95.80
19206;DHT22;59358;52.134;5.596;2023-06-10T07:20:20;23.30;95.70
19206;DHT22;59358;52.134;5.596;2023-06-10T07:22:47;23.50;94.70
19206;DHT22;59358;52.134;5.596;2023-06-10T07:25:14;23.40;94.60
19206;DHT22;59358;52.134;5.596;2023-06-10T07:27:41;23.50;94.60
19206;DHT22;59358;52.134;5.596;2023-06-10T07:30:09;23.60;94.60
19206;DHT22;59358;52.134;5.596;2023-06-10T07:32:36;23.70;94.70
19206;DHT22;59358;52.134;5.596;2023-06-10T07:35:05;23.80;94.40
19206;DHT22;59358;52.134;5.596;2023-06-10T07:37:33;23.80;94.10
19206;DHT22;59358;52.134;5.596;2023-06-10T07:40:01;23.90;93.80
19206;DHT22;59358;52.134;5.596;2023-06-10T07:42:27;24.00;94.10
19206;DHT22;59358;52.134;5.596;2023-06-10T07:44:54;24.10;94.10
19206;DHT22;59358;52.134;5.596;2023-06-10T07:47:21;24.20;94.10
19206;DHT22;59358;52.134;5.596;2023-06-10T07:49:47;24.20;93.70
19206;DHT22;59358;52.134;5.596;2023-06-10T07:52:14;24.30;93.10
19206;DHT22;59358;52.134;5.596;2023-06-10T07:54:42;24.40;93.00
19206;DHT22;59358;52.134;5.596;2023-06-10T07:57:09;24.50;93.90
19206;DHT22;59358;52.134;5.596;2023-06-10T07:59:37;24.70;93.10
19206;DHT22;59358;52.134;5.596;2023-06-10T08:02:04;24.90;93.60
19206;DHT22;59358;52.134;5.596;2023-06-10T08:04:32;25.00;92.60
19206;DHT22;59358;52.134;5.596;2023-06-10T08:07:00;25.00;92.40
19206;DHT22;59358;52.134;5.596;2023-06-10T08:09:27;25.10;92.30
19206;DHT22;59358;52.134;5.596;2023-06-10T08:11:56;25.10;92.40
19206;DHT22;59358;52.134;5.596;2023-06-10T08:14:22;25.30;92.10
19206;DHT22;59358;52.134;5.596;2023-06-10T08:16:49;25.20;91.80
19206;DHT22;59358;52.134;5.596;2023-06-10T08:19:16;25.20;91.90
19206;DHT22;59358;52.134;5.596;2023-06-10T08:21:43;25.50;92.30
